createdAt,value
2018-05-15T00:01:31.977Z,5.10
2018-05-15T00:07:37.100Z,4.90
2018-05-15T00:13:41.476Z,3.97
2018-05-15T00:19:46.016Z,4.43
2018-05-15T00:25:51.220Z,4.17
2018-05-15T00:31:56.342Z,3.73
2018-05-15T00:38:00.685Z,4.30
2018-05-15T00:44:05.810Z,3.80
2018-05-15T00:50:10.173Z,4.77
2018-05-15T00:56:14.550Z,4.10
2018-05-15T01:02:19.530Z,4.53
2018-05-15T01:08:24.302Z,5.00
2018-05-15T01:14:29.425Z,4.17
2018-05-15T01:20:33.793Z,4.33
2018-05-15T01:26:38.123Z,4.30
2018-05-15T01:32:42.520Z,4.37
2018-05-15T01:38:46.874Z,4.47
2018-05-15T01:44:51.527Z,4.83
2018-05-15T01:50:56.771Z,4.70
2018-05-15T01:57:01.130Z,4.90
2018-05-15T02:03:06.257Z,4.50
2018-05-15T02:09:10.600Z,4.63
2018-05-15T02:15:15.056Z,4.40
2018-05-15T02:21:19.549Z,4.57
2018-05-15T02:27:23.929Z,5.47
2018-05-15T02:33:29.049Z,4.17
2018-05-15T02:39:33.395Z,4.60
2018-05-15T02:45:38.503Z,6.07
2018-05-15T02:51:42.863Z,5.30
2018-05-15T02:57:48.399Z,4.90
2018-05-15T03:03:53.373Z,4.67
2018-05-15T03:09:57.745Z,5.10
2018-05-15T03:16:02.097Z,5.40
2018-05-15T03:22:06.480Z,4.87
2018-05-15T03:28:11.604Z,4.97
2018-05-15T03:34:15.965Z,4.87
2018-05-15T03:40:20.723Z,5.30
2018-05-15T03:46:25.140Z,5.33
2018-05-15T03:52:29.500Z,5.57
2018-05-15T03:58:33.848Z,5.50
2018-05-15T04:04:56.831Z,5.67
2018-05-15T04:11:01.299Z,5.97
2018-05-15T04:17:06.539Z,6.40
2018-05-15T04:23:11.636Z,5.60
2018-05-15T04:29:16.743Z,5.60
2018-05-15T04:35:22.317Z,5.97
2018-05-15T04:41:26.637Z,6.60
2018-05-15T04:47:31.165Z,6.90
2018-05-15T04:53:35.521Z,7.33
2018-05-15T04:59:40.033Z,6.73
2018-05-15T05:05:45.187Z,7.10
2018-05-15T05:11:50.818Z,7.73
2018-05-15T05:17:55.237Z,5.90
2018-05-15T05:23:59.592Z,9.37
2018-05-15T05:30:03.949Z,5.93
2018-05-15T05:36:09.287Z,6.53
2018-05-15T05:42:13.700Z,5.80
2018-05-15T05:48:18.120Z,6.83
2018-05-15T05:54:23.628Z,5.53
2018-05-15T06:00:28.164Z,5.50
2018-05-15T06:06:32.508Z,6.43
2018-05-15T06:12:37.270Z,5.20
2018-05-15T06:18:41.617Z,6.13
2018-05-15T06:24:46.746Z,6.40
2018-05-15T06:30:51.845Z,5.67
2018-05-15T06:36:57.047Z,5.50
2018-05-15T06:43:01.400Z,6.40
2018-05-15T06:49:05.952Z,6.20
2018-05-15T06:55:11.133Z,6.03
2018-05-15T07:01:16.242Z,6.60
2018-05-15T07:07:20.751Z,7.00
2018-05-15T07:13:26.243Z,8.33
2018-05-15T07:19:30.678Z,6.10
2018-05-15T07:25:35.009Z,6.87
2018-05-15T07:31:39.388Z,6.70
2018-05-15T07:37:43.753Z,7.03
2018-05-15T07:43:48.120Z,5.50
2018-05-15T07:49:53.875Z,6.30
2018-05-15T07:55:58.227Z,5.77
2018-05-15T08:02:02.620Z,5.70
2018-05-15T08:08:06.996Z,4.93
2018-05-15T08:14:11.343Z,5.07
2018-05-15T08:20:15.693Z,5.20
2018-05-15T08:26:20.135Z,4.87
2018-05-15T08:32:25.304Z,4.40
2018-05-15T08:38:29.664Z,4.70
2018-05-15T08:44:34.017Z,4.20
2018-05-15T08:50:38.381Z,3.87
2018-05-15T08:56:42.750Z,5.20
2018-05-15T09:02:47.865Z,5.40
2018-05-15T09:08:52.570Z,4.50
2018-05-15T09:14:57.269Z,4.20
2018-05-15T09:21:01.700Z,4.87
2018-05-15T09:27:06.043Z,4.80
2018-05-15T09:33:11.210Z,4.33
2018-05-15T09:39:16.337Z,4.57
2018-05-15T09:45:21.460Z,4.33
2018-05-15T09:51:25.829Z,4.80
2018-05-15T09:57:30.176Z,5.20
2018-05-15T10:03:34.733Z,5.10
2018-05-15T10:09:39.122Z,5.17
2018-05-15T10:15:44.245Z,4.93
2018-05-15T10:21:48.601Z,5.20
2018-05-15T10:27:53.053Z,5.47
2018-05-15T10:33:57.401Z,5.43
2018-05-15T10:40:01.952Z,5.87
2018-05-15T10:46:06.310Z,5.23
2018-05-15T10:52:10.653Z,5.87
2018-05-15T10:58:15.784Z,5.40
2018-05-15T11:04:20.372Z,6.27
2018-05-15T11:10:24.849Z,5.50
2018-05-15T11:16:29.293Z,5.23
2018-05-15T11:22:52.042Z,5.73
2018-05-15T11:28:56.441Z,6.40
2018-05-15T11:35:00.851Z,5.67
2018-05-15T11:41:06.849Z,5.47
2018-05-15T11:47:11.979Z,4.63
2018-05-15T11:53:16.838Z,4.60
2018-05-15T11:59:22.455Z,4.23
2018-05-15T12:05:26.850Z,4.70
2018-05-15T12:11:31.305Z,4.43
2018-05-15T12:17:35.691Z,4.90
2018-05-15T12:23:40.042Z,4.10
2018-05-15T12:29:45.432Z,4.30
2018-05-15T12:35:49.904Z,4.70
2018-05-15T12:41:55.645Z,6.10
2018-05-15T12:48:00.737Z,4.70
2018-05-15T12:54:05.178Z,4.30
2018-05-15T13:00:09.569Z,5.20
2018-05-15T13:06:13.923Z,4.57
2018-05-15T13:12:18.475Z,3.93
2018-05-15T13:18:23.861Z,3.43
2018-05-15T13:24:28.249Z,5.20
2018-05-15T13:30:32.577Z,4.20
2018-05-15T13:36:37.733Z,5.43
2018-05-15T13:42:42.086Z,10.17
2018-05-15T13:48:46.466Z,5.10
2018-05-15T13:54:50.857Z,4.10
2018-05-15T14:00:55.336Z,4.87
2018-05-15T14:06:59.748Z,4.43
2018-05-15T14:13:04.870Z,4.27
2018-05-15T14:19:09.250Z,4.67
2018-05-15T14:25:13.824Z,4.67
2018-05-15T14:31:18.140Z,4.77
2018-05-15T14:37:23.298Z,4.20
2018-05-15T14:43:27.770Z,4.60
2018-05-15T14:49:32.249Z,4.13
2018-05-15T14:55:36.674Z,6.80
2018-05-15T15:01:42.382Z,4.47
2018-05-15T15:07:48.197Z,6.00
2018-05-15T15:13:54.071Z,4.10
2018-05-15T15:19:59.285Z,4.00
2018-05-15T15:26:04.478Z,4.00
2018-05-15T15:32:08.913Z,4.27
2018-05-15T15:38:13.303Z,3.20
2018-05-15T15:44:17.655Z,3.50
2018-05-15T15:50:22.069Z,3.70
2018-05-15T15:56:26.424Z,4.33
2018-05-15T16:02:30.782Z,4.50
2018-05-15T16:08:35.174Z,4.10
2018-05-15T16:14:39.537Z,3.93
2018-05-15T16:20:43.895Z,4.50
2018-05-15T16:26:48.201Z,4.23
2018-05-15T16:32:53.394Z,3.80
2018-05-15T16:38:57.748Z,4.53
2018-05-15T16:45:02.106Z,3.97
2018-05-15T16:51:06.473Z,4.20
2018-05-15T16:57:11.601Z,4.03
2018-05-15T17:03:15.948Z,4.50
2018-05-15T17:09:20.636Z,5.17
2018-05-15T17:15:24.989Z,4.87
2018-05-15T17:21:30.142Z,4.73
2018-05-15T17:27:34.720Z,3.93
2018-05-15T17:33:39.121Z,4.77
2018-05-15T17:39:43.738Z,4.20
2018-05-15T17:45:48.243Z,3.77
2018-05-15T17:51:54.085Z,4.90
2018-05-15T17:57:59.565Z,3.70
2018-05-15T18:04:03.901Z,3.60
2018-05-15T18:10:08.267Z,4.40
2018-05-15T18:16:13.386Z,3.40
2018-05-15T18:22:17.697Z,3.40
2018-05-15T18:28:23.023Z,4.10
2018-05-15T18:34:28.140Z,3.77
2018-05-15T18:40:32.601Z,3.80
2018-05-15T18:46:37.303Z,3.70
2018-05-15T18:52:41.629Z,3.37
2018-05-15T18:58:45.986Z,3.60
2018-05-15T19:04:50.404Z,3.97
2018-05-15T19:10:54.776Z,5.70
2018-05-15T19:16:59.125Z,4.17
2018-05-15T19:23:03.664Z,5.40
2018-05-15T19:29:07.997Z,3.83
2018-05-15T19:35:18.603Z,4.03
2018-05-15T19:41:23.049Z,4.90
2018-05-15T19:47:27.349Z,4.67
2018-05-15T19:53:33.221Z,4.47
2018-05-15T19:59:37.550Z,4.00
2018-05-15T20:05:42.711Z,3.70
2018-05-15T20:11:47.073Z,4.63
2018-05-15T20:17:51.462Z,5.00
2018-05-15T20:23:55.984Z,4.93
2018-05-15T20:30:00.344Z,4.83
2018-05-15T20:36:05.470Z,4.67
2018-05-15T20:42:10.488Z,4.67
2018-05-15T20:48:14.762Z,5.00
2018-05-15T20:54:19.126Z,5.30
2018-05-15T21:00:23.798Z,7.10
2018-05-15T21:06:28.133Z,5.90
2018-05-15T21:12:33.276Z,5.53
2018-05-15T21:18:37.620Z,6.20
2018-05-15T21:24:41.996Z,6.83
2018-05-15T21:30:46.341Z,6.60
2018-05-15T21:36:50.865Z,7.07
2018-05-15T21:42:55.290Z,8.67
2018-05-15T21:48:59.649Z,7.60
2018-05-15T21:55:04.004Z,8.60
2018-05-15T22:01:08.372Z,7.87
2018-05-15T22:07:12.735Z,9.40
2018-05-15T22:13:35.029Z,7.80
2018-05-15T22:20:03.243Z,9.20
2018-05-15T22:26:13.590Z,9.90
2018-05-15T22:32:17.946Z,9.00
2018-05-15T22:38:22.849Z,8.43
2018-05-15T22:44:27.211Z,8.83
2018-05-15T22:50:32.014Z,9.20
2018-05-15T22:56:36.387Z,9.00
2018-05-15T23:02:40.734Z,7.67
2018-05-15T23:08:45.080Z,8.47
2018-05-15T23:14:49.564Z,8.40
2018-05-15T23:20:54.394Z,8.40
2018-05-15T23:26:59.588Z,7.50
2018-05-15T23:33:03.950Z,7.53
2018-05-15T23:39:08.316Z,8.40
2018-05-15T23:45:12.668Z,7.33
2018-05-15T23:51:17.041Z,8.10
2018-05-15T23:57:22.203Z,7.90
